createdAt,value
2022-09-22T00:01:55.540Z,5.20
2022-09-22T00:04:24.599Z,4.60
2022-09-22T00:06:53.343Z,4.77
2022-09-22T00:09:23.010Z,5.30
2022-09-22T00:11:54.109Z,4.57
2022-09-22T00:14:35.844Z,4.37
2022-09-22T00:17:06.089Z,5.43
2022-09-22T00:19:37.176Z,4.90
2022-09-22T00:22:06.700Z,4.93
2022-09-22T00:24:35.020Z,4.97
2022-09-22T00:27:03.256Z,5.30
2022-09-22T00:29:32.046Z,5.47
2022-09-22T00:32:07.166Z,5.33
2022-09-22T00:34:35.714Z,5.20
2022-09-22T00:37:04.015Z,6.07
2022-09-22T00:39:32.203Z,6.27
2022-09-22T00:42:00.391Z,6.80
2022-09-22T00:44:46.516Z,6.47
2022-09-22T00:47:35.424Z,5.70
2022-09-22T00:50:13.801Z,5.50
2022-09-22T00:52:47.575Z,6.13
2022-09-22T00:55:20.114Z,5.70
2022-09-22T00:57:50.598Z,5.43
2022-09-22T01:00:18.883Z,5.37
2022-09-22T01:02:51.791Z,4.33
2022-09-22T01:05:26.083Z,5.00
2022-09-22T01:07:55.312Z,5.23
2022-09-22T01:10:26.363Z,4.73
2022-09-22T01:13:05.411Z,4.87
2022-09-22T01:15:41.361Z,4.97
2022-09-22T01:18:22.131Z,5.73
2022-09-22T01:21:28.017Z,5.23
2022-09-22T01:24:23.971Z,5.40
2022-09-22T01:27:12.936Z,5.20
2022-09-22T01:30:22.094Z,5.77
2022-09-22T01:33:17.685Z,6.17
2022-09-22T01:35:57.997Z,4.70
2022-09-22T01:38:32.975Z,5.37
2022-09-22T01:41:05.023Z,4.43
2022-09-22T01:43:41.645Z,5.27
2022-09-22T01:46:15.875Z,4.97
2022-09-22T01:48:50.173Z,5.03
2022-09-22T01:51:22.597Z,4.90
2022-09-22T01:53:57.735Z,4.47
2022-09-22T01:56:29.268Z,4.60
2022-09-22T01:59:03.613Z,5.23
2022-09-22T02:01:37.875Z,4.93
2022-09-22T02:04:15.398Z,5.20
2022-09-22T02:06:49.969Z,5.30
2022-09-22T02:09:21.166Z,5.23
2022-09-22T02:11:50.278Z,5.60
2022-09-22T02:14:18.895Z,5.53
2022-09-22T02:16:47.246Z,5.00
2022-09-22T02:19:20.896Z,6.10
2022-09-22T02:21:49.939Z,5.27
2022-09-22T02:24:34.497Z,5.60
2022-09-22T02:27:06.904Z,5.33
2022-09-22T02:29:40.898Z,5.80
2022-09-22T02:32:12.759Z,5.73
2022-09-22T02:34:42.743Z,6.13
2022-09-22T02:37:20.659Z,6.27
2022-09-22T02:39:58.153Z,6.53
2022-09-22T02:42:30.963Z,6.63
2022-09-22T02:45:05.639Z,6.70
2022-09-22T02:47:38.071Z,6.47
2022-09-22T02:50:11.939Z,6.23
2022-09-22T02:52:41.486Z,6.70
2022-09-22T02:55:11.518Z,6.37
2022-09-22T02:57:40.000Z,5.57
2022-09-22T03:00:09.287Z,5.80
2022-09-22T03:02:37.543Z,6.53
2022-09-22T03:05:08.116Z,6.00
2022-09-22T03:07:36.403Z,6.43
2022-09-22T03:10:04.900Z,6.23
2022-09-22T03:12:33.113Z,6.37
2022-09-22T03:15:01.356Z,6.37
2022-09-22T03:17:32.157Z,6.50
2022-09-22T03:20:00.368Z,6.23
2022-09-22T03:22:29.953Z,7.00
2022-09-22T03:24:58.147Z,7.17
2022-09-22T03:27:27.343Z,7.37
2022-09-22T03:29:55.831Z,7.30
2022-09-22T03:32:24.045Z,6.97
2022-09-22T03:34:52.324Z,7.23
2022-09-22T03:37:20.536Z,7.63
2022-09-22T03:39:50.212Z,7.27
2022-09-22T03:43:16.658Z,7.87
2022-09-22T03:45:45.210Z,8.63
2022-09-22T03:48:13.530Z,9.23
2022-09-22T03:50:41.911Z,9.60
2022-09-22T03:53:10.166Z,9.57
2022-09-22T03:55:39.757Z,9.80
2022-09-22T03:58:08.028Z,10.07
2022-09-22T04:00:36.271Z,9.63
2022-09-22T04:03:04.530Z,9.37
2022-09-22T04:05:32.940Z,10.13
2022-09-22T04:11:27.662Z,10.07
2022-09-22T04:13:55.873Z,9.13
2022-09-22T04:16:24.176Z,9.07
2022-09-22T04:18:53.000Z,9.20
2022-09-22T04:21:21.258Z,9.13
2022-09-22T04:24:14.321Z,8.57
2022-09-22T04:26:56.611Z,8.50
2022-09-22T04:29:32.255Z,8.83
2022-09-22T04:32:00.446Z,9.10
2022-09-22T04:34:28.794Z,8.87
2022-09-22T04:36:57.095Z,9.50
2022-09-22T04:39:25.409Z,8.90
2022-09-22T04:41:55.048Z,9.93
2022-09-22T04:44:23.389Z,8.63
2022-09-22T04:46:51.835Z,9.60
2022-09-22T04:49:20.292Z,9.00
2022-09-22T04:51:48.504Z,9.90
2022-09-22T04:54:16.746Z,9.47
2022-09-22T04:56:45.370Z,9.97
2022-09-22T04:59:14.988Z,9.77
2022-09-22T05:01:43.289Z,9.30
2022-09-22T05:04:11.771Z,9.27
2022-09-22T05:06:40.087Z,8.83
2022-09-22T05:09:08.259Z,8.97
2022-09-22T05:11:36.569Z,9.37
2022-09-22T05:14:04.848Z,9.07
2022-09-22T05:16:35.296Z,9.73
2022-09-22T05:19:03.538Z,9.80
2022-09-22T05:21:31.940Z,9.47
2022-09-22T05:24:00.757Z,8.73
2022-09-22T05:26:30.943Z,8.03
2022-09-22T05:28:59.219Z,9.60
2022-09-22T05:31:27.668Z,9.07
2022-09-22T05:33:57.496Z,8.57
2022-09-22T05:36:25.788Z,7.23
2022-09-22T05:38:54.035Z,8.67
2022-09-22T05:41:22.290Z,8.53
2022-09-22T05:43:50.473Z,9.03
2022-09-22T05:46:18.729Z,9.10
2022-09-22T05:48:47.012Z,8.20
2022-09-22T05:51:16.676Z,8.70
2022-09-22T05:53:44.881Z,9.23
2022-09-22T05:56:13.107Z,8.57
2022-09-22T05:58:41.387Z,8.33
2022-09-22T06:01:09.659Z,7.80
2022-09-22T06:03:38.119Z,7.73
2022-09-22T06:06:06.577Z,8.10
2022-09-22T06:08:36.169Z,8.23
2022-09-22T06:11:04.386Z,8.27
2022-09-22T06:13:32.662Z,9.03
2022-09-22T06:16:02.814Z,8.53
2022-09-22T06:18:31.513Z,8.30
2022-09-22T06:21:00.005Z,8.23
2022-09-22T06:23:28.207Z,7.57
2022-09-22T06:26:00.786Z,7.77
2022-09-22T06:28:28.990Z,7.40
2022-09-22T06:31:00.644Z,7.80
2022-09-22T06:33:28.997Z,8.00
2022-09-22T06:35:58.237Z,6.70
2022-09-22T06:38:26.452Z,7.93
2022-09-22T06:41:03.080Z,6.90
2022-09-22T06:43:32.035Z,7.90
2022-09-22T06:46:01.695Z,7.63
2022-09-22T06:48:30.476Z,8.10
2022-09-22T06:50:58.779Z,6.70
2022-09-22T06:53:27.694Z,6.23
2022-09-22T06:55:56.052Z,7.00
2022-09-22T06:59:08.980Z,6.20
2022-09-22T07:01:38.289Z,6.77
2022-09-22T07:04:06.595Z,6.60
2022-09-22T07:06:37.161Z,6.00
2022-09-22T07:09:06.477Z,7.50
2022-09-22T07:11:39.046Z,7.07
2022-09-22T07:14:12.637Z,6.30
2022-09-22T07:16:41.399Z,6.90
2022-09-22T07:19:37.359Z,5.63
2022-09-22T07:22:06.841Z,5.67
2022-09-22T07:24:35.181Z,5.63
2022-09-22T07:27:05.031Z,4.43
2022-09-22T07:29:34.691Z,6.63
2022-09-22T07:32:03.984Z,5.40
2022-09-22T07:34:32.668Z,7.43
2022-09-22T07:37:02.574Z,6.00
2022-09-22T07:39:30.772Z,5.67
2022-09-22T07:41:59.065Z,4.80
2022-09-22T07:44:44.811Z,4.73
2022-09-22T07:47:14.503Z,4.33
2022-09-22T07:49:43.055Z,4.77
2022-09-22T07:52:11.908Z,5.03
2022-09-22T07:54:40.129Z,4.90
2022-09-22T07:57:11.143Z,5.40
2022-09-22T07:59:41.708Z,5.13
2022-09-22T08:02:11.557Z,4.60
2022-09-22T08:04:41.217Z,4.67
2022-09-22T08:07:09.517Z,3.50
2022-09-22T08:09:37.741Z,4.20
2022-09-22T08:12:06.155Z,3.30
2022-09-22T08:14:40.150Z,4.10
2022-09-22T08:17:12.302Z,3.83
2022-09-22T08:19:42.046Z,2.93
2022-09-22T08:22:12.176Z,2.80
2022-09-22T08:24:40.397Z,2.67
2022-09-22T08:27:08.652Z,2.83
2022-09-22T08:29:36.871Z,2.70
2022-09-22T08:32:05.206Z,3.00
2022-09-22T08:34:33.423Z,2.80
2022-09-22T08:37:03.050Z,2.87
2022-09-22T08:39:31.360Z,2.80
2022-09-22T08:42:09.720Z,3.00
2022-09-22T08:44:43.355Z,2.60
2022-09-22T08:47:38.562Z,2.43
2022-09-22T08:50:37.246Z,2.40
2022-09-22T08:53:10.035Z,3.17
2022-09-22T08:55:43.133Z,2.50
2022-09-22T08:58:25.835Z,4.07
2022-09-22T09:01:06.126Z,3.63
2022-09-22T09:03:49.688Z,2.30
2022-09-22T09:06:26.588Z,2.20
2022-09-22T09:09:26.687Z,2.30
2022-09-22T09:12:09.346Z,2.00
2022-09-22T09:15:10.800Z,2.40
2022-09-22T09:17:41.341Z,2.40
2022-09-22T09:20:17.986Z,2.20
2022-09-22T09:22:52.748Z,2.20
2022-09-22T09:25:28.306Z,3.40
2022-09-22T09:28:01.302Z,3.50
2022-09-22T09:30:57.446Z,2.60
2022-09-22T09:33:31.930Z,3.70
2022-09-22T09:36:00.764Z,2.60
2022-09-22T09:38:31.539Z,2.30
2022-09-22T09:41:10.066Z,2.17
2022-09-22T09:43:42.743Z,2.60
2022-09-22T09:46:20.172Z,3.40
2022-09-22T09:49:03.908Z,2.90
2022-09-22T09:51:39.701Z,3.50
2022-09-22T09:54:13.113Z,4.17
2022-09-22T09:57:07.883Z,2.97
2022-09-22T09:59:54.439Z,3.20
2022-09-22T10:02:25.392Z,2.87
2022-09-22T10:05:36.938Z,2.43
2022-09-22T10:08:24.527Z,2.37
2022-09-22T10:10:57.835Z,1.90
2022-09-22T10:13:39.295Z,2.50
2022-09-22T10:16:21.039Z,2.70
2022-09-22T10:18:50.671Z,6.67
2022-09-22T10:21:20.719Z,4.93
2022-09-22T10:23:50.192Z,2.53
2022-09-22T10:26:21.988Z,2.20
2022-09-22T10:29:46.879Z,2.57
2022-09-22T10:32:17.820Z,1.70
2022-09-22T10:34:48.354Z,1.60
2022-09-22T10:37:19.276Z,1.80
2022-09-22T10:39:50.441Z,1.50
2022-09-22T10:42:34.596Z,1.43
2022-09-22T10:45:06.275Z,1.37
2022-09-22T10:47:44.407Z,1.90
2022-09-22T10:50:37.299Z,1.60
2022-09-22T10:53:51.806Z,1.80
2022-09-22T10:56:28.046Z,1.70
2022-09-22T10:59:20.651Z,1.80
2022-09-22T11:01:59.087Z,1.80
2022-09-22T11:04:49.226Z,1.60
2022-09-22T11:07:52.062Z,1.50
2022-09-22T11:10:47.120Z,1.50
2022-09-22T11:13:28.129Z,1.60
2022-09-22T11:16:44.780Z,1.37
2022-09-22T11:19:36.814Z,1.40
2022-09-22T11:22:32.946Z,2.00
2022-09-22T11:25:14.601Z,2.43
2022-09-22T11:28:01.544Z,2.47
2022-09-22T11:30:34.631Z,2.23
2022-09-22T11:33:24.593Z,2.23
2022-09-22T11:36:08.210Z,2.10
2022-09-22T11:39:10.292Z,2.07
2022-09-22T11:41:42.933Z,2.87
2022-09-22T11:44:36.151Z,2.00
2022-09-22T11:47:23.924Z,1.77
2022-09-22T11:50:05.313Z,1.70
2022-09-22T11:52:49.203Z,1.77
2022-09-22T11:55:30.693Z,2.10
2022-09-22T11:58:03.463Z,1.63
2022-09-22T12:00:38.712Z,1.60
2022-09-22T12:03:11.291Z,1.67
2022-09-22T12:05:44.668Z,1.70
2022-09-22T12:08:18.745Z,1.57
2022-09-22T12:10:50.146Z,1.77
2022-09-22T12:13:21.947Z,1.30
2022-09-22T12:16:00.374Z,1.40
2022-09-22T12:18:38.737Z,1.60
2022-09-22T12:21:16.372Z,2.10
2022-09-22T12:23:51.300Z,2.10
2022-09-22T12:26:28.558Z,1.93
2022-09-22T12:28:58.775Z,2.00
2022-09-22T12:31:36.158Z,1.90
2022-09-22T12:34:07.188Z,2.00
2022-09-22T12:36:37.652Z,2.10
2022-09-22T12:39:18.218Z,1.70
2022-09-22T12:41:49.553Z,1.53
2022-09-22T12:44:21.959Z,1.70
2022-09-22T12:46:51.102Z,1.80
2022-09-22T12:49:22.436Z,1.90
2022-09-22T12:52:30.584Z,1.70
2022-09-22T12:55:18.112Z,1.50
2022-09-22T12:58:25.326Z,1.70
2022-09-22T13:00:56.411Z,1.60
2022-09-22T13:03:50.759Z,1.83
2022-09-22T13:06:57.054Z,1.60
2022-09-22T13:09:34.334Z,1.80
2022-09-22T13:12:28.128Z,2.67
2022-09-22T13:15:00.893Z,1.73
2022-09-22T13:17:41.372Z,1.80
2022-09-22T13:20:22.938Z,1.57
2022-09-22T13:22:52.146Z,1.43
2022-09-22T13:25:28.407Z,1.40
2022-09-22T13:28:15.868Z,1.50
2022-09-22T13:30:45.969Z,1.40
2022-09-22T13:33:22.547Z,2.63
2022-09-22T13:35:57.376Z,1.57
2022-09-22T13:38:26.457Z,1.50
2022-09-22T13:40:54.902Z,1.40
2022-09-22T13:43:30.310Z,1.40
2022-09-22T13:46:00.696Z,1.50
2022-09-22T13:48:32.540Z,1.73
2022-09-22T13:51:26.223Z,1.90
2022-09-22T13:53:57.746Z,1.80
2022-09-22T13:56:27.256Z,1.70
2022-09-22T13:59:00.214Z,1.53
2022-09-22T14:01:35.924Z,1.30
2022-09-22T14:04:04.579Z,1.40
2022-09-22T14:06:34.415Z,1.30
2022-09-22T14:09:03.094Z,1.27
2022-09-22T14:11:33.492Z,1.30
2022-09-22T14:14:04.613Z,1.50
2022-09-22T14:16:37.219Z,1.10
2022-09-22T14:19:14.590Z,1.10
2022-09-22T14:21:49.290Z,1.20
2022-09-22T14:24:17.955Z,1.10
2022-09-22T14:26:48.049Z,1.07
2022-09-22T14:29:24.613Z,1.40
2022-09-22T14:31:59.269Z,1.70
2022-09-22T14:34:31.360Z,1.60
2022-09-22T14:37:02.040Z,1.57
2022-09-22T14:39:34.291Z,1.80
2022-09-22T14:42:10.267Z,1.97
2022-09-22T14:44:45.903Z,2.20
2022-09-22T14:47:27.268Z,1.77
2022-09-22T14:50:10.382Z,1.70
2022-09-22T14:52:42.581Z,2.40
2022-09-22T14:55:18.081Z,1.83
2022-09-22T14:57:49.512Z,1.87
2022-09-22T15:03:31.160Z,2.93
2022-09-22T15:06:08.398Z,3.20
2022-09-22T15:08:37.292Z,2.87
2022-09-22T15:11:06.059Z,2.60
2022-09-22T15:13:42.009Z,2.70
2022-09-22T15:16:43.719Z,2.70
2022-09-22T15:19:12.518Z,2.50
2022-09-22T15:21:46.306Z,2.80
2022-09-22T15:24:16.489Z,3.13
2022-09-22T15:26:45.369Z,3.27
2022-09-22T15:29:17.478Z,2.67
2022-09-22T15:31:47.811Z,3.00
2022-09-22T15:34:16.965Z,3.17
2022-09-22T15:36:48.928Z,3.30
2022-09-22T15:39:21.803Z,2.90
2022-09-22T15:41:50.703Z,3.73
2022-09-22T15:44:19.787Z,3.40
2022-09-22T15:46:53.545Z,3.40
2022-09-22T15:49:26.675Z,4.07
2022-09-22T15:51:56.078Z,4.27
2022-09-22T15:54:26.670Z,4.53
2022-09-22T15:56:56.636Z,4.43
2022-09-22T15:59:28.276Z,3.90
2022-09-22T16:01:59.707Z,4.30
2022-09-22T16:04:34.413Z,3.80
2022-09-22T16:07:08.587Z,3.80
2022-09-22T16:09:37.266Z,4.47
2022-09-22T16:12:08.827Z,4.60
2022-09-22T16:14:39.536Z,4.80
2022-09-22T16:17:09.454Z,4.50
2022-09-22T16:19:37.775Z,5.70
2022-09-22T16:22:06.613Z,7.13
2022-09-22T16:24:35.279Z,13.30
2022-09-22T16:27:04.183Z,13.83
2022-09-22T16:29:32.704Z,12.33
2022-09-22T16:32:01.332Z,9.97
2022-09-22T16:34:31.263Z,8.43
2022-09-22T16:37:00.564Z,6.90
2022-09-22T16:39:28.836Z,6.00
2022-09-22T16:41:57.187Z,5.60
2022-09-22T16:44:25.997Z,5.27
2022-09-22T16:46:54.545Z,5.27
2022-09-22T16:49:23.467Z,5.50
2022-09-22T16:51:55.190Z,6.00
2022-09-22T16:54:24.816Z,5.77
2022-09-22T16:56:54.711Z,5.97
2022-09-22T16:59:29.179Z,5.40
2022-09-22T17:01:57.588Z,6.37
2022-09-22T17:04:25.974Z,6.60
2022-09-22T17:06:55.967Z,6.97
2022-09-22T17:09:24.172Z,6.77
2022-09-22T17:11:52.640Z,5.90
2022-09-22T17:14:23.072Z,6.00
2022-09-22T17:16:53.537Z,7.03
2022-09-22T17:19:23.099Z,7.97
2022-09-22T17:21:53.987Z,7.50
2022-09-22T17:24:24.336Z,7.40
2022-09-22T17:26:55.041Z,7.90
2022-09-22T17:29:25.647Z,7.60
2022-09-22T17:31:57.772Z,9.07
2022-09-22T17:34:26.369Z,11.20
2022-09-22T17:36:55.542Z,11.70
2022-09-22T17:39:26.826Z,13.30
2022-09-22T17:41:55.322Z,12.67
2022-09-22T17:44:26.661Z,12.47
2022-09-22T17:47:12.713Z,10.17
2022-09-22T17:49:59.001Z,8.20
2022-09-22T17:52:44.755Z,5.90
2022-09-22T17:55:20.818Z,6.30
2022-09-22T17:57:50.403Z,5.93
2022-09-22T18:00:21.037Z,5.90
2022-09-22T18:02:50.457Z,5.77
2022-09-22T18:05:20.896Z,6.17
2022-09-22T18:07:59.750Z,5.87
2022-09-22T18:10:54.430Z,5.47
2022-09-22T18:13:22.625Z,6.30
2022-09-22T18:15:51.676Z,6.50
2022-09-22T18:18:19.950Z,5.93
2022-09-22T18:20:48.432Z,5.30
2022-09-22T18:23:16.758Z,5.77
2022-09-22T18:25:45.770Z,5.83
2022-09-22T18:28:15.397Z,5.53
2022-09-22T18:30:43.644Z,6.27
2022-09-22T18:33:13.492Z,5.97
2022-09-22T18:35:45.989Z,7.07
2022-09-22T18:38:15.052Z,9.73
2022-09-22T18:40:43.730Z,7.40
2022-09-22T18:43:12.014Z,6.77
2022-09-22T18:45:41.585Z,5.80
2022-09-22T18:48:09.776Z,5.40
2022-09-22T18:50:38.139Z,5.90
2022-09-22T18:53:06.410Z,5.47
2022-09-22T18:55:34.633Z,4.73
2022-09-22T18:58:02.829Z,4.90
2022-09-22T19:00:31.605Z,4.37
2022-09-22T19:03:01.258Z,4.40
2022-09-22T19:05:29.611Z,5.93
2022-09-22T19:08:00.778Z,5.30
2022-09-22T19:10:29.010Z,5.50
2022-09-22T19:12:57.218Z,5.20
2022-09-22T19:15:25.719Z,5.17
2022-09-22T19:17:53.959Z,5.67
2022-09-22T19:20:24.489Z,5.40
2022-09-22T19:22:53.783Z,5.50
2022-09-22T19:25:23.320Z,5.33
2022-09-22T19:27:52.326Z,5.23
2022-09-22T19:30:24.074Z,6.10
2022-09-22T19:32:54.765Z,5.53
2022-09-22T19:35:24.357Z,5.93
2022-09-22T19:37:53.021Z,6.30
2022-09-22T19:40:24.316Z,5.53
2022-09-22T19:42:53.546Z,5.20
2022-09-22T19:45:21.954Z,5.40
2022-09-22T19:47:50.189Z,5.67
2022-09-22T19:50:18.770Z,5.23
2022-09-22T19:52:48.572Z,5.00
2022-09-22T19:55:20.747Z,5.27
2022-09-22T19:57:51.199Z,7.97
2022-09-22T20:00:25.893Z,6.97
2022-09-22T20:02:58.666Z,5.77
2022-09-22T20:05:29.650Z,6.90
2022-09-22T20:07:59.295Z,5.80
2022-09-22T20:10:27.592Z,6.37
2022-09-22T20:12:55.916Z,7.40
2022-09-22T20:15:27.333Z,6.43
2022-09-22T20:17:55.679Z,6.60
2022-09-22T20:20:26.074Z,6.23
2022-09-22T20:23:01.131Z,7.03
2022-09-22T20:25:33.054Z,9.87
2022-09-22T20:28:01.300Z,11.37
2022-09-22T20:30:29.528Z,12.30
2022-09-22T20:32:57.819Z,13.40
2022-09-22T20:35:26.127Z,8.90
2022-09-22T20:37:58.323Z,6.27
2022-09-22T20:40:29.013Z,5.80
2022-09-22T20:42:58.123Z,6.77
2022-09-22T20:45:27.243Z,6.20
2022-09-22T20:47:56.249Z,6.30
2022-09-22T20:50:24.618Z,6.30
2022-09-22T20:52:52.874Z,6.33
2022-09-22T20:55:22.097Z,6.33
2022-09-22T20:57:51.721Z,5.37
2022-09-22T21:00:20.024Z,5.70
2022-09-22T21:02:48.456Z,6.23
2022-09-22T21:05:16.833Z,5.90
2022-09-22T21:07:45.133Z,6.03
2022-09-22T21:13:44.361Z,5.77
2022-09-22T21:16:13.793Z,6.03
2022-09-22T21:18:42.431Z,5.80
2022-09-22T21:21:10.801Z,5.73
2022-09-22T21:23:39.049Z,6.37
2022-09-22T21:26:08.223Z,5.67
2022-09-22T21:28:36.460Z,6.63
2022-09-22T21:31:21.753Z,6.17
2022-09-22T21:33:50.367Z,6.13
2022-09-22T21:36:20.740Z,6.40
2022-09-22T21:38:51.322Z,6.43
2022-09-22T21:41:21.165Z,5.83
2022-09-22T21:43:51.019Z,5.97
2022-09-22T21:46:22.526Z,6.10
2022-09-22T21:48:50.898Z,6.00
2022-09-22T21:51:26.934Z,5.70
2022-09-22T21:53:56.619Z,6.03
2022-09-22T21:56:26.185Z,6.27
2022-09-22T21:58:58.852Z,6.13
2022-09-22T22:01:30.348Z,6.30
2022-09-22T22:04:00.668Z,6.00
2022-09-22T22:06:30.062Z,6.27
2022-09-22T22:09:02.434Z,5.50
2022-09-22T22:11:33.662Z,5.27
2022-09-22T22:14:03.307Z,6.30
2022-09-22T22:16:35.265Z,5.97
2022-09-22T22:19:03.677Z,6.77
2022-09-22T22:21:32.781Z,6.33
2022-09-22T22:24:17.137Z,8.33
2022-09-22T22:26:47.387Z,7.03
2022-09-22T22:29:16.879Z,6.90
2022-09-22T22:31:47.502Z,6.77
2022-09-22T22:34:18.016Z,6.70
2022-09-22T22:36:46.476Z,6.63
2022-09-22T22:39:14.891Z,6.10
2022-09-22T22:41:43.219Z,6.13
2022-09-22T22:44:12.330Z,5.90
2022-09-22T22:46:40.618Z,6.60
2022-09-22T22:49:11.596Z,6.87
2022-09-22T22:51:42.833Z,6.30
2022-09-22T22:54:12.051Z,6.27
2022-09-22T22:56:42.385Z,6.00
2022-09-22T22:59:11.516Z,5.80
2022-09-22T23:01:40.570Z,6.17
2022-09-22T23:04:12.399Z,6.33
2022-09-22T23:06:44.036Z,6.40
2022-09-22T23:09:14.073Z,6.17
2022-09-22T23:11:44.021Z,5.93
2022-09-22T23:14:15.797Z,6.20
2022-09-22T23:16:45.997Z,6.17
2022-09-22T23:19:17.222Z,6.70
2022-09-22T23:21:46.465Z,6.57
2022-09-22T23:24:16.365Z,6.47
2022-09-22T23:26:45.726Z,6.57
2022-09-22T23:29:14.203Z,6.30
2022-09-22T23:31:42.476Z,6.37
2022-09-22T23:34:10.791Z,6.80
2022-09-22T23:36:40.619Z,6.47
2022-09-22T23:39:09.043Z,7.37
2022-09-22T23:41:38.593Z,7.10
2022-09-22T23:44:07.497Z,6.90
2022-09-22T23:46:37.525Z,6.80
2022-09-22T23:49:08.728Z,7.13
2022-09-22T23:51:36.979Z,7.20
2022-09-22T23:54:06.885Z,6.00
2022-09-22T23:56:35.476Z,7.13
2022-09-22T23:59:04.753Z,6.67
